sensor_id;sensor_type;location;lat;lon;timestamp;P1;durP1;ratioP1;P2;durP2;ratioP2
1412;SDS011;701;52.526;13.408;2022-11-21T00:00:27;25.23;;;11.35;;
1412;SDS011;701;52.526;13.408;2022-11-21T00:02:56;23.63;;;10.93;;
1412;SDS011;701;52.526;13.408;2022-11-21T00:05:23;24.20;;;11.18;;
1412;SDS011;701;52.526;13.408;2022-11-21T00:07:48;26.10;;;11.07;;
1412;SDS011;701;52.526;13.408;2022-11-21T00:10:14;24.45;;;10.98;;
1412;SDS011;701;52.526;13.408;2022-11-21T00:12:40;23.67;;;10.82;;
1412;SDS011;701;52.526;13.408;2022-11-21T00:15:06;24.80;;;11.30;;
1412;SDS011;701;52.526;13.408;2022-11-21T00:17:32;23.30;;;10.37;;
1412;SDS011;701;52.526;13.408;2022-11-21T00:19:58;23.00;;;10.60;;
1412;SDS011;701;52.526;13.408;2022-11-21T00:22:24;25.93;;;11.77;;
1412;SDS011;701;52.526;13.408;2022-11-21T00:24:49;26.27;;;11.68;;
1412;SDS011;701;52.526;13.408;2022-11-21T00:27:15;23.93;;;10.77;;
1412;SDS011;701;52.526;13.408;2022-11-21T00:29:41;24.83;;;11.10;;
1412;SDS011;701;52.526;13.408;2022-11-21T00:32:06;29.00;;;11.10;;
1412;SDS011;701;52.526;13.408;2022-11-21T00:34:32;27.00;;;11.70;;
1412;SDS011;701;52.526;13.408;2022-11-21T00:36:58;23.65;;;11.27;;
1412;SDS011;701;52.526;13.408;2022-11-21T00:39:23;23.30;;;11.30;;
1412;SDS011;701;52.526;13.408;2022-11-21T00:41:49;23.17;;;10.93;;
1412;SDS011;701;52.526;13.408;2022-11-21T00:44:15;23.50;;;10.67;;
1412;SDS011;701;52.526;13.408;2022-11-21T00:46:40;25.52;;;10.98;;
1412;SDS011;701;52.526;13.408;2022-11-21T00:49:06;22.47;;;10.73;;
1412;SDS011;701;52.526;13.408;2022-11-21T00:51:32;24.60;;;10.80;;
1412;SDS011;701;52.526;13.408;2022-11-21T00:53:57;26.48;;;11.23;;
1412;SDS011;701;52.526;13.408;2022-11-21T00:56:23;23.73;;;10.80;;
1412;SDS011;701;52.526;13.408;2022-11-21T00:58:49;23.65;;;10.95;;
1412;SDS011;701;52.526;13.408;2022-11-21T01:01:14;25.60;;;11.13;;
1412;SDS011;701;52.526;13.408;2022-11-21T01:03:41;24.83;;;11.05;;
1412;SDS011;701;52.526;13.408;2022-11-21T01:06:11;23.33;;;10.60;;
1412;SDS011;701;52.526;13.408;2022-11-21T01:08:39;24.47;;;11.10;;
1412;SDS011;701;52.526;13.408;2022-11-21T01:11:08;23.38;;;11.00;;
1412;SDS011;701;52.526;13.408;2022-11-21T01:13:37;22.67;;;11.00;;
1412;SDS011;701;52.526;13.408;2022-11-21T01:16:07;25.73;;;12.15;;
1412;SDS011;701;52.526;13.408;2022-11-21T01:18:33;24.23;;;11.20;;
1412;SDS011;701;52.526;13.408;2022-11-21T01:21:04;22.53;;;10.67;;
1412;SDS011;701;52.526;13.408;2022-11-21T01:23:32;24.13;;;11.38;;
1412;SDS011;701;52.526;13.408;2022-11-21T01:26:02;25.58;;;11.77;;
1412;SDS011;701;52.526;13.408;2022-11-21T01:28:29;26.02;;;12.02;;
1412;SDS011;701;52.526;13.408;2022-11-21T01:31:01;24.20;;;10.65;;
1412;SDS011;701;52.526;13.408;2022-11-21T01:33:33;24.10;;;11.00;;
1412;SDS011;701;52.526;13.408;2022-11-21T01:36:07;25.90;;;11.35;;
1412;SDS011;701;52.526;13.408;2022-11-21T01:38:38;28.13;;;12.35;;
1412;SDS011;701;52.526;13.408;2022-11-21T01:41:05;26.60;;;10.88;;
1412;SDS011;701;52.526;13.408;2022-11-21T01:43:32;22.98;;;11.63;;
1412;SDS011;701;52.526;13.408;2022-11-21T01:45:59;26.73;;;12.00;;
1412;SDS011;701;52.526;13.408;2022-11-21T01:48:31;28.25;;;11.63;;
1412;SDS011;701;52.526;13.408;2022-11-21T01:54:12;23.77;;;11.65;;
1412;SDS011;701;52.526;13.408;2022-11-21T01:56:47;25.88;;;11.75;;
1412;SDS011;701;52.526;13.408;2022-11-21T01:59:30;27.43;;;12.33;;
1412;SDS011;701;52.526;13.408;2022-11-21T02:02:35;28.20;;;11.88;;
1412;SDS011;701;52.526;13.408;2022-11-21T02:05:04;29.65;;;12.60;;
1412;SDS011;701;52.526;13.408;2022-11-21T02:07:34;26.83;;;12.80;;
1412;SDS011;701;52.526;13.408;2022-11-21T02:10:02;25.17;;;12.00;;
1412;SDS011;701;52.526;13.408;2022-11-21T02:12:46;27.30;;;11.97;;
1412;SDS011;701;52.526;13.408;2022-11-21T02:15:21;25.80;;;11.63;;
1412;SDS011;701;52.526;13.408;2022-11-21T02:17:48;30.08;;;12.43;;
1412;SDS011;701;52.526;13.408;2022-11-21T02:20:15;25.90;;;11.95;;
1412;SDS011;701;52.526;13.408;2022-11-21T02:25:30;25.38;;;12.48;;
1412;SDS011;701;52.526;13.408;2022-11-21T02:28:03;27.13;;;12.68;;
1412;SDS011;701;52.526;13.408;2022-11-21T02:30:31;27.85;;;12.02;;
1412;SDS011;701;52.526;13.408;2022-11-21T02:33:01;26.10;;;11.70;;
1412;SDS011;701;52.526;13.408;2022-11-21T02:35:28;25.40;;;11.30;;
1412;SDS011;701;52.526;13.408;2022-11-21T02:37:56;28.83;;;11.73;;
1412;SDS011;701;52.526;13.408;2022-11-21T02:40:24;26.10;;;12.10;;
1412;SDS011;701;52.526;13.408;2022-11-21T02:45:37;25.27;;;11.50;;
1412;SDS011;701;52.526;13.408;2022-11-21T02:48:05;23.50;;;10.93;;
1412;SDS011;701;52.526;13.408;2022-11-21T02:50:31;24.45;;;10.50;;
1412;SDS011;701;52.526;13.408;2022-11-21T02:52:59;27.17;;;11.80;;
1412;SDS011;701;52.526;13.408;2022-11-21T02:55:25;25.73;;;11.67;;
1412;SDS011;701;52.526;13.408;2022-11-21T02:57:51;25.00;;;12.13;;
1412;SDS011;701;52.526;13.408;2022-11-21T03:00:17;23.80;;;11.50;;
1412;SDS011;701;52.526;13.408;2022-11-21T03:02:43;26.45;;;11.45;;
1412;SDS011;701;52.526;13.408;2022-11-21T03:05:10;24.20;;;11.67;;
1412;SDS011;701;52.526;13.408;2022-11-21T03:07:38;26.45;;;12.00;;
1412;SDS011;701;52.526;13.408;2022-11-21T03:10:04;26.45;;;12.02;;
1412;SDS011;701;52.526;13.408;2022-11-21T03:12:30;25.27;;;11.87;;
1412;SDS011;701;52.526;13.408;2022-11-21T03:14:56;27.73;;;11.77;;
1412;SDS011;701;52.526;13.408;2022-11-21T03:17:21;25.52;;;11.68;;
1412;SDS011;701;52.526;13.408;2022-11-21T03:19:47;26.40;;;11.90;;
1412;SDS011;701;52.526;13.408;2022-11-21T03:22:13;23.40;;;10.95;;
1412;SDS011;701;52.526;13.408;2022-11-21T03:24:39;25.55;;;11.88;;
1412;SDS011;701;52.526;13.408;2022-11-21T03:27:06;24.98;;;11.25;;
1412;SDS011;701;52.526;13.408;2022-11-21T03:29:32;23.90;;;11.57;;
1412;SDS011;701;52.526;13.408;2022-11-21T03:31:57;27.45;;;11.63;;
1412;SDS011;701;52.526;13.408;2022-11-21T03:34:23;26.98;;;12.05;;
1412;SDS011;701;52.526;13.408;2022-11-21T03:36:49;25.90;;;12.45;;
1412;SDS011;701;52.526;13.408;2022-11-21T03:39:15;29.63;;;12.55;;
1412;SDS011;701;52.526;13.408;2022-11-21T03:41:41;25.93;;;11.70;;
1412;SDS011;701;52.526;13.408;2022-11-21T03:44:08;31.25;;;12.57;;
1412;SDS011;701;52.526;13.408;2022-11-21T03:46:36;26.95;;;13.00;;
1412;SDS011;701;52.526;13.408;2022-11-21T03:49:06;28.70;;;12.63;;
1412;SDS011;701;52.526;13.408;2022-11-21T03:51:33;25.73;;;11.07;;
1412;SDS011;701;52.526;13.408;2022-11-21T03:54:00;27.70;;;11.60;;
1412;SDS011;701;52.526;13.408;2022-11-21T03:56:26;26.65;;;11.85;;
1412;SDS011;701;52.526;13.408;2022-11-21T03:58:52;25.38;;;12.27;;
1412;SDS011;701;52.526;13.408;2022-11-21T04:01:19;26.65;;;11.98;;
1412;SDS011;701;52.526;13.408;2022-11-21T04:03:45;28.70;;;12.17;;
1412;SDS011;701;52.526;13.408;2022-11-21T04:06:12;28.15;;;12.00;;
1412;SDS011;701;52.526;13.408;2022-11-21T04:08:38;26.05;;;12.48;;
1412;SDS011;701;52.526;13.408;2022-11-21T04:11:04;26.30;;;11.77;;
1412;SDS011;701;52.526;13.408;2022-11-21T04:13:30;25.50;;;11.88;;
1412;SDS011;701;52.526;13.408;2022-11-21T04:15:56;28.38;;;12.55;;
1412;SDS011;701;52.526;13.408;2022-11-21T04:18:22;23.70;;;12.23;;
1412;SDS011;701;52.526;13.408;2022-11-21T04:20:48;28.30;;;12.55;;
1412;SDS011;701;52.526;13.408;2022-11-21T04:23:13;26.13;;;12.23;;
1412;SDS011;701;52.526;13.408;2022-11-21T04:25:40;22.75;;;11.85;;
1412;SDS011;701;52.526;13.408;2022-11-21T04:28:05;27.60;;;12.88;;
1412;SDS011;701;52.526;13.408;2022-11-21T04:30:32;23.60;;;11.13;;
1412;SDS011;701;52.526;13.408;2022-11-21T04:32:58;29.88;;;12.63;;
1412;SDS011;701;52.526;13.408;2022-11-21T04:35:25;26.00;;;12.35;;
1412;SDS011;701;52.526;13.408;2022-11-21T04:37:52;27.75;;;12.48;;
1412;SDS011;701;52.526;13.408;2022-11-21T04:40:18;28.97;;;12.57;;
1412;SDS011;701;52.526;13.408;2022-11-21T04:42:44;26.88;;;12.88;;
1412;SDS011;701;52.526;13.408;2022-11-21T04:45:11;30.40;;;12.75;;
1412;SDS011;701;52.526;13.408;2022-11-21T04:47:41;27.67;;;12.13;;
1412;SDS011;701;52.526;13.408;2022-11-21T04:50:09;27.30;;;12.37;;
1412;SDS011;701;52.526;13.408;2022-11-21T04:52:36;29.98;;;12.95;;
1412;SDS011;701;52.526;13.408;2022-11-21T04:55:02;27.58;;;13.15;;
1412;SDS011;701;52.526;13.408;2022-11-21T04:57:29;28.03;;;13.53;;
1412;SDS011;701;52.526;13.408;2022-11-21T04:59:55;29.23;;;13.50;;
1412;SDS011;701;52.526;13.408;2022-11-21T05:02:21;27.05;;;12.93;;
1412;SDS011;701;52.526;13.408;2022-11-21T05:04:47;30.07;;;13.50;;
1412;SDS011;701;52.526;13.408;2022-11-21T05:07:13;28.48;;;13.27;;
1412;SDS011;701;52.526;13.408;2022-11-21T05:09:39;29.02;;;13.57;;
1412;SDS011;701;52.526;13.408;2022-11-21T05:12:05;29.27;;;13.70;;
1412;SDS011;701;52.526;13.408;2022-11-21T05:14:50;30.88;;;14.00;;
1412;SDS011;701;52.526;13.408;2022-11-21T05:17:15;29.25;;;12.98;;
1412;SDS011;701;52.526;13.408;2022-11-21T05:19:41;29.98;;;12.70;;
1412;SDS011;701;52.526;13.408;2022-11-21T05:22:07;30.60;;;12.88;;
1412;SDS011;701;52.526;13.408;2022-11-21T05:24:33;33.92;;;13.95;;
1412;SDS011;701;52.526;13.408;2022-11-21T05:26:58;30.63;;;13.57;;
1412;SDS011;701;52.526;13.408;2022-11-21T05:29:24;29.33;;;13.98;;
1412;SDS011;701;52.526;13.408;2022-11-21T05:31:50;27.57;;;13.17;;
1412;SDS011;701;52.526;13.408;2022-11-21T05:34:18;27.80;;;13.43;;
1412;SDS011;701;52.526;13.408;2022-11-21T05:36:43;33.42;;;16.45;;
1412;SDS011;701;52.526;13.408;2022-11-21T05:39:09;33.40;;;15.68;;
1412;SDS011;701;52.526;13.408;2022-11-21T05:41:35;34.22;;;13.75;;
1412;SDS011;701;52.526;13.408;2022-11-21T05:44:01;29.93;;;13.97;;
1412;SDS011;701;52.526;13.408;2022-11-21T05:46:26;30.23;;;13.90;;
1412;SDS011;701;52.526;13.408;2022-11-21T05:48:52;31.97;;;12.90;;
1412;SDS011;701;52.526;13.408;2022-11-21T05:51:19;26.40;;;13.02;;
1412;SDS011;701;52.526;13.408;2022-11-21T05:53:46;30.95;;;14.00;;
1412;SDS011;701;52.526;13.408;2022-11-21T05:56:13;34.53;;;13.73;;
1412;SDS011;701;52.526;13.408;2022-11-21T05:58:39;30.40;;;13.75;;
1412;SDS011;701;52.526;13.408;2022-11-21T06:01:06;30.73;;;14.10;;
1412;SDS011;701;52.526;13.408;2022-11-21T06:03:34;33.92;;;15.32;;
1412;SDS011;701;52.526;13.408;2022-11-21T06:06:05;30.30;;;14.30;;
1412;SDS011;701;52.526;13.408;2022-11-21T06:08:33;31.15;;;13.88;;
1412;SDS011;701;52.526;13.408;2022-11-21T06:11:04;30.38;;;14.02;;
1412;SDS011;701;52.526;13.408;2022-11-21T06:13:30;30.08;;;13.05;;
1412;SDS011;701;52.526;13.408;2022-11-21T06:18:34;27.43;;;13.30;;
1412;SDS011;701;52.526;13.408;2022-11-21T06:21:08;29.35;;;13.50;;
1412;SDS011;701;52.526;13.408;2022-11-21T06:23:38;29.35;;;13.07;;
1412;SDS011;701;52.526;13.408;2022-11-21T06:26:05;27.73;;;13.68;;
1412;SDS011;701;52.526;13.408;2022-11-21T06:28:35;28.30;;;13.10;;
1412;SDS011;701;52.526;13.408;2022-11-21T06:31:03;25.55;;;12.75;;
1412;SDS011;701;52.526;13.408;2022-11-21T06:33:30;31.55;;;13.52;;
1412;SDS011;701;52.526;13.408;2022-11-21T06:35:56;27.80;;;12.85;;
1412;SDS011;701;52.526;13.408;2022-11-21T06:38:21;32.87;;;14.37;;
1412;SDS011;701;52.526;13.408;2022-11-21T06:40:47;28.67;;;13.75;;
1412;SDS011;701;52.526;13.408;2022-11-21T06:43:13;32.03;;;13.25;;
1412;SDS011;701;52.526;13.408;2022-11-21T06:45:39;26.53;;;12.87;;
1412;SDS011;701;52.526;13.408;2022-11-21T06:48:05;31.15;;;13.98;;
1412;SDS011;701;52.526;13.408;2022-11-21T06:50:31;30.98;;;13.80;;
1412;SDS011;701;52.526;13.408;2022-11-21T06:52:57;29.60;;;13.90;;
1412;SDS011;701;52.526;13.408;2022-11-21T06:55:23;30.25;;;14.25;;
1412;SDS011;701;52.526;13.408;2022-11-21T06:57:52;36.45;;;14.80;;
1412;SDS011;701;52.526;13.408;2022-11-21T07:00:18;45.47;;;20.40;;
1412;SDS011;701;52.526;13.408;2022-11-21T07:02:45;28.88;;;13.68;;
1412;SDS011;701;52.526;13.408;2022-11-21T07:05:11;28.40;;;13.80;;
1412;SDS011;701;52.526;13.408;2022-11-21T07:07:36;33.00;;;13.85;;
1412;SDS011;701;52.526;13.408;2022-11-21T07:10:02;29.37;;;13.77;;
1412;SDS011;701;52.526;13.408;2022-11-21T07:12:28;29.73;;;14.27;;
1412;SDS011;701;52.526;13.408;2022-11-21T07:15:12;30.85;;;13.48;;
1412;SDS011;701;52.526;13.408;2022-11-21T07:17:38;29.90;;;13.83;;
1412;SDS011;701;52.526;13.408;2022-11-21T07:20:04;31.38;;;13.93;;
1412;SDS011;701;52.526;13.408;2022-11-21T07:22:30;29.73;;;12.88;;
1412;SDS011;701;52.526;13.408;2022-11-21T07:24:56;32.70;;;14.63;;
1412;SDS011;701;52.526;13.408;2022-11-21T07:27:22;30.85;;;14.43;;
1412;SDS011;701;52.526;13.408;2022-11-21T07:29:47;29.33;;;13.33;;
1412;SDS011;701;52.526;13.408;2022-11-21T07:32:13;32.35;;;14.55;;
1412;SDS011;701;52.526;13.408;2022-11-21T07:34:39;30.95;;;13.77;;
1412;SDS011;701;52.526;13.408;2022-11-21T07:37:05;31.20;;;14.65;;
1412;SDS011;701;52.526;13.408;2022-11-21T07:39:31;36.23;;;14.87;;
1412;SDS011;701;52.526;13.408;2022-11-21T07:41:56;45.67;;;20.40;;
1412;SDS011;701;52.526;13.408;2022-11-21T07:44:22;34.93;;;16.00;;
1412;SDS011;701;52.526;13.408;2022-11-21T07:46:48;33.30;;;15.98;;
1412;SDS011;701;52.526;13.408;2022-11-21T07:49:17;34.97;;;15.68;;
1412;SDS011;701;52.526;13.408;2022-11-21T07:51:43;35.27;;;16.80;;
1412;SDS011;701;52.526;13.408;2022-11-21T07:54:08;37.80;;;17.27;;
1412;SDS011;701;52.526;13.408;2022-11-21T07:56:34;37.45;;;16.50;;
1412;SDS011;701;52.526;13.408;2022-11-21T07:59:00;36.13;;;16.80;;
1412;SDS011;701;52.526;13.408;2022-11-21T08:01:26;36.88;;;16.88;;
1412;SDS011;701;52.526;13.408;2022-11-21T08:03:51;38.28;;;17.13;;
1412;SDS011;701;52.526;13.408;2022-11-21T08:06:17;38.08;;;16.08;;
1412;SDS011;701;52.526;13.408;2022-11-21T08:08:43;34.33;;;16.25;;
1412;SDS011;701;52.526;13.408;2022-11-21T08:11:09;35.30;;;15.93;;
1412;SDS011;701;52.526;13.408;2022-11-21T08:13:34;40.07;;;16.67;;
1412;SDS011;701;52.526;13.408;2022-11-21T08:16:03;38.78;;;16.80;;
1412;SDS011;701;52.526;13.408;2022-11-21T08:18:30;36.03;;;16.25;;
1412;SDS011;701;52.526;13.408;2022-11-21T08:20:56;35.25;;;16.80;;
1412;SDS011;701;52.526;13.408;2022-11-21T08:23:24;39.40;;;16.97;;
1412;SDS011;701;52.526;13.408;2022-11-21T08:25:50;37.50;;;16.23;;
1412;SDS011;701;52.526;13.408;2022-11-21T08:28:16;36.55;;;15.48;;
1412;SDS011;701;52.526;13.408;2022-11-21T08:30:43;30.87;;;14.77;;
1412;SDS011;701;52.526;13.408;2022-11-21T08:33:09;33.47;;;14.70;;
1412;SDS011;701;52.526;13.408;2022-11-21T08:35:36;35.72;;;16.17;;
1412;SDS011;701;52.526;13.408;2022-11-21T08:38:03;34.80;;;14.75;;
1412;SDS011;701;52.526;13.408;2022-11-21T08:40:30;35.88;;;15.32;;
1412;SDS011;701;52.526;13.408;2022-11-21T08:42:58;35.97;;;14.67;;
1412;SDS011;701;52.526;13.408;2022-11-21T08:45:25;34.83;;;15.73;;
1412;SDS011;701;52.526;13.408;2022-11-21T08:47:52;35.97;;;15.18;;
1412;SDS011;701;52.526;13.408;2022-11-21T08:50:19;30.80;;;14.13;;
1412;SDS011;701;52.526;13.408;2022-11-21T08:52:47;36.70;;;15.27;;
1412;SDS011;701;52.526;13.408;2022-11-21T08:55:14;34.07;;;14.73;;
1412;SDS011;701;52.526;13.408;2022-11-21T08:57:41;31.88;;;13.82;;
1412;SDS011;701;52.526;13.408;2022-11-21T09:00:08;33.53;;;13.05;;
1412;SDS011;701;52.526;13.408;2022-11-21T09:02:39;30.73;;;12.20;;
1412;SDS011;701;52.526;13.408;2022-11-21T09:05:05;38.88;;;14.30;;
1412;SDS011;701;52.526;13.408;2022-11-21T09:07:32;33.50;;;13.77;;
1412;SDS011;701;52.526;13.408;2022-11-21T09:09:59;34.28;;;12.98;;
1412;SDS011;701;52.526;13.408;2022-11-21T09:12:25;31.23;;;13.43;;
1412;SDS011;701;52.526;13.408;2022-11-21T09:14:51;41.33;;;15.35;;
1412;SDS011;701;52.526;13.408;2022-11-21T09:17:36;41.17;;;16.45;;
1412;SDS011;701;52.526;13.408;2022-11-21T09:20:21;40.35;;;17.52;;
1412;SDS011;701;52.526;13.408;2022-11-21T09:22:46;54.22;;;26.75;;
1412;SDS011;701;52.526;13.408;2022-11-21T09:25:12;42.65;;;18.00;;
1412;SDS011;701;52.526;13.408;2022-11-21T09:27:38;37.60;;;16.17;;
1412;SDS011;701;52.526;13.408;2022-11-21T09:30:04;41.03;;;16.98;;
1412;SDS011;701;52.526;13.408;2022-11-21T09:32:29;33.95;;;14.48;;
1412;SDS011;701;52.526;13.408;2022-11-21T09:34:55;38.57;;;14.07;;
1412;SDS011;701;52.526;13.408;2022-11-21T09:37:21;36.65;;;14.48;;
1412;SDS011;701;52.526;13.408;2022-11-21T09:39:47;35.87;;;13.93;;
1412;SDS011;701;52.526;13.408;2022-11-21T09:45:18;30.10;;;13.07;;
1412;SDS011;701;52.526;13.408;2022-11-21T09:47:50;28.80;;;10.70;;
1412;SDS011;701;52.526;13.408;2022-11-21T09:53:08;28.67;;;10.93;;
1412;SDS011;701;52.526;13.408;2022-11-21T09:55:41;31.95;;;14.85;;
1412;SDS011;701;52.526;13.408;2022-11-21T09:58:29;33.83;;;13.87;;
1412;SDS011;701;52.526;13.408;2022-11-21T10:01:12;31.55;;;11.45;;
1412;SDS011;701;52.526;13.408;2022-11-21T10:03:43;26.10;;;13.68;;
1412;SDS011;701;52.526;13.408;2022-11-21T10:12:02;25.13;;;11.27;;
1412;SDS011;701;52.526;13.408;2022-11-21T10:17:30;31.20;;;12.05;;
1412;SDS011;701;52.526;13.408;2022-11-21T10:25:42;26.37;;;11.03;;
1412;SDS011;701;52.526;13.408;2022-11-21T10:28:54;26.52;;;11.50;;
1412;SDS011;701;52.526;13.408;2022-11-21T10:31:34;24.27;;;11.23;;
1412;SDS011;701;52.526;13.408;2022-11-21T10:34:02;26.08;;;11.50;;
1412;SDS011;701;52.526;13.408;2022-11-21T10:36:38;28.50;;;12.43;;
1412;SDS011;701;52.526;13.408;2022-11-21T10:39:13;28.27;;;12.03;;
1412;SDS011;701;52.526;13.408;2022-11-21T10:41:55;26.23;;;12.07;;
1412;SDS011;701;52.526;13.408;2022-11-21T10:44:41;24.33;;;11.15;;
1412;SDS011;701;52.526;13.408;2022-11-21T10:47:30;25.52;;;11.07;;
1412;SDS011;701;52.526;13.408;2022-11-21T10:52:47;34.27;;;11.23;;
1412;SDS011;701;52.526;13.408;2022-11-21T10:55:17;26.83;;;11.65;;
1412;SDS011;701;52.526;13.408;2022-11-21T10:57:47;29.70;;;10.85;;
1412;SDS011;701;52.526;13.408;2022-11-21T11:00:16;24.10;;;10.57;;
1412;SDS011;701;52.526;13.408;2022-11-21T11:02:57;21.98;;;9.65;;
1412;SDS011;701;52.526;13.408;2022-11-21T11:05:32;26.70;;;11.20;;
1412;SDS011;701;52.526;13.408;2022-11-21T11:08:05;23.85;;;10.15;;
1412;SDS011;701;52.526;13.408;2022-11-21T11:10:37;27.40;;;11.27;;
1412;SDS011;701;52.526;13.408;2022-11-21T11:13:14;27.37;;;10.93;;
1412;SDS011;701;52.526;13.408;2022-11-21T11:15:57;27.85;;;11.70;;
1412;SDS011;701;52.526;13.408;2022-11-21T11:18:39;20.48;;;9.13;;
1412;SDS011;701;52.526;13.408;2022-11-21T11:26:57;25.10;;;10.37;;
1412;SDS011;701;52.526;13.408;2022-11-21T11:29:25;22.92;;;10.07;;
1412;SDS011;701;52.526;13.408;2022-11-21T11:31:58;23.83;;;11.02;;
1412;SDS011;701;52.526;13.408;2022-11-21T11:37:11;22.83;;;10.07;;
1412;SDS011;701;52.526;13.408;2022-11-21T11:48:43;23.27;;;10.30;;
1412;SDS011;701;52.526;13.408;2022-11-21T11:54:10;20.90;;;9.97;;
1412;SDS011;701;52.526;13.408;2022-11-21T11:56:41;22.48;;;10.02;;
1412;SDS011;701;52.526;13.408;2022-11-21T12:04:23;22.02;;;9.93;;
1412;SDS011;701;52.526;13.408;2022-11-21T12:06:59;22.23;;;10.60;;
1412;SDS011;701;52.526;13.408;2022-11-21T12:09:55;23.13;;;9.60;;
1412;SDS011;701;52.526;13.408;2022-11-21T12:23:55;21.40;;;10.00;;
1412;SDS011;701;52.526;13.408;2022-11-21T12:26:27;21.08;;;10.02;;
1412;SDS011;701;52.526;13.408;2022-11-21T12:37:47;19.15;;;9.52;;
1412;SDS011;701;52.526;13.408;2022-11-21T12:55:01;15.27;;;7.47;;
1412;SDS011;701;52.526;13.408;2022-11-21T13:00:18;14.67;;;7.13;;
1412;SDS011;701;52.526;13.408;2022-11-21T13:05:55;16.48;;;7.50;;
1412;SDS011;701;52.526;13.408;2022-11-21T13:08:27;16.67;;;7.45;;
1412;SDS011;701;52.526;13.408;2022-11-21T13:10:58;15.40;;;7.55;;
1412;SDS011;701;52.526;13.408;2022-11-21T13:16:36;16.83;;;7.22;;
1412;SDS011;701;52.526;13.408;2022-11-21T13:19:16;14.73;;;7.20;;
1412;SDS011;701;52.526;13.408;2022-11-21T13:22:00;14.23;;;6.68;;
1412;SDS011;701;52.526;13.408;2022-11-21T13:27:31;16.77;;;7.65;;
1412;SDS011;701;52.526;13.408;2022-11-21T13:30:17;14.98;;;7.07;;
1412;SDS011;701;52.526;13.408;2022-11-21T13:32:48;16.13;;;7.28;;
1412;SDS011;701;52.526;13.408;2022-11-21T13:40:44;15.60;;;6.93;;
1412;SDS011;701;52.526;13.408;2022-11-21T13:43:30;16.33;;;7.30;;
1412;SDS011;701;52.526;13.408;2022-11-21T13:45:56;17.38;;;7.78;;
1412;SDS011;701;52.526;13.408;2022-11-21T14:08:18;19.02;;;8.25;;
1412;SDS011;701;52.526;13.408;2022-11-21T14:10:47;20.70;;;9.13;;
1412;SDS011;701;52.526;13.408;2022-11-21T14:13:19;21.63;;;9.00;;
1412;SDS011;701;52.526;13.408;2022-11-21T14:18:28;18.97;;;8.97;;
1412;SDS011;701;52.526;13.408;2022-11-21T14:20:56;17.70;;;8.20;;
1412;SDS011;701;52.526;13.408;2022-11-21T14:23:25;20.55;;;9.73;;
1412;SDS011;701;52.526;13.408;2022-11-21T14:25:59;21.05;;;9.25;;
1412;SDS011;701;52.526;13.408;2022-11-21T14:29:00;20.83;;;9.05;;
1412;SDS011;701;52.526;13.408;2022-11-21T14:31:45;20.77;;;9.57;;
1412;SDS011;701;52.526;13.408;2022-11-21T14:34:24;30.35;;;14.27;;
1412;SDS011;701;52.526;13.408;2022-11-21T14:36:56;21.17;;;9.93;;
1412;SDS011;701;52.526;13.408;2022-11-21T14:39:27;19.75;;;10.18;;
1412;SDS011;701;52.526;13.408;2022-11-21T14:41:55;20.67;;;9.20;;
1412;SDS011;701;52.526;13.408;2022-11-21T14:44:23;21.93;;;10.33;;
1412;SDS011;701;52.526;13.408;2022-11-21T14:46:50;20.85;;;10.77;;
1412;SDS011;701;52.526;13.408;2022-11-21T14:49:27;21.65;;;9.98;;
1412;SDS011;701;52.526;13.408;2022-11-21T14:54:45;22.08;;;10.80;;
1412;SDS011;701;52.526;13.408;2022-11-21T14:57:23;21.50;;;10.57;;
1412;SDS011;701;52.526;13.408;2022-11-21T14:59:52;24.50;;;11.25;;
1412;SDS011;701;52.526;13.408;2022-11-21T15:02:37;19.13;;;9.60;;
1412;SDS011;701;52.526;13.408;2022-11-21T15:05:06;22.98;;;11.00;;
1412;SDS011;701;52.526;13.408;2022-11-21T15:07:40;23.05;;;11.07;;
1412;SDS011;701;52.526;13.408;2022-11-21T15:10:14;27.13;;;11.33;;
1412;SDS011;701;52.526;13.408;2022-11-21T15:15:48;23.42;;;11.23;;
1412;SDS011;701;52.526;13.408;2022-11-21T15:18:21;23.67;;;10.27;;
1412;SDS011;701;52.526;13.408;2022-11-21T15:20:50;22.75;;;11.50;;
1412;SDS011;701;52.526;13.408;2022-11-21T15:23:38;21.40;;;10.57;;
1412;SDS011;701;52.526;13.408;2022-11-21T15:26:04;23.33;;;11.23;;
1412;SDS011;701;52.526;13.408;2022-11-21T15:28:31;25.77;;;11.23;;
1412;SDS011;701;52.526;13.408;2022-11-21T15:34:00;23.07;;;10.53;;
1412;SDS011;701;52.526;13.408;2022-11-21T15:36:28;23.55;;;11.70;;
1412;SDS011;701;52.526;13.408;2022-11-21T15:41:32;22.58;;;9.90;;
1412;SDS011;701;52.526;13.408;2022-11-21T15:46:31;33.63;;;15.43;;
1412;SDS011;701;52.526;13.408;2022-11-21T15:49:10;28.38;;;13.52;;
1412;SDS011;701;52.526;13.408;2022-11-21T15:51:43;19.42;;;10.07;;
1412;SDS011;701;52.526;13.408;2022-11-21T15:54:11;22.97;;;11.17;;
1412;SDS011;701;52.526;13.408;2022-11-21T15:56:39;20.45;;;10.52;;
1412;SDS011;701;52.526;13.408;2022-11-21T15:59:08;24.35;;;11.50;;
1412;SDS011;701;52.526;13.408;2022-11-21T16:01:34;25.02;;;11.77;;
1412;SDS011;701;52.526;13.408;2022-11-21T16:04:02;22.42;;;11.27;;
1412;SDS011;701;52.526;13.408;2022-11-21T16:06:32;24.17;;;10.77;;
1412;SDS011;701;52.526;13.408;2022-11-21T16:08:58;26.55;;;12.38;;
1412;SDS011;701;52.526;13.408;2022-11-21T16:11:26;26.60;;;12.32;;
1412;SDS011;701;52.526;13.408;2022-11-21T16:13:53;27.33;;;12.00;;
1412;SDS011;701;52.526;13.408;2022-11-21T16:16:20;19.85;;;10.32;;
1412;SDS011;701;52.526;13.408;2022-11-21T16:18:47;22.00;;;9.60;;
1412;SDS011;701;52.526;13.408;2022-11-21T16:21:14;22.08;;;10.32;;
1412;SDS011;701;52.526;13.408;2022-11-21T16:23:40;20.23;;;9.98;;
1412;SDS011;701;52.526;13.408;2022-11-21T16:26:06;20.25;;;9.40;;
1412;SDS011;701;52.526;13.408;2022-11-21T16:28:33;21.20;;;10.53;;
1412;SDS011;701;52.526;13.408;2022-11-21T16:31:00;22.98;;;10.23;;
1412;SDS011;701;52.526;13.408;2022-11-21T16:33:26;20.17;;;10.13;;
1412;SDS011;701;52.526;13.408;2022-11-21T16:35:53;21.80;;;10.27;;
1412;SDS011;701;52.526;13.408;2022-11-21T16:38:22;21.85;;;10.75;;
1412;SDS011;701;52.526;13.408;2022-11-21T16:40:55;22.03;;;10.27;;
1412;SDS011;701;52.526;13.408;2022-11-21T16:43:23;24.48;;;10.63;;
1412;SDS011;701;52.526;13.408;2022-11-21T16:45:49;21.40;;;10.93;;
1412;SDS011;701;52.526;13.408;2022-11-21T16:48:16;23.35;;;10.27;;
1412;SDS011;701;52.526;13.408;2022-11-21T16:50:42;23.17;;;11.73;;
1412;SDS011;701;52.526;13.408;2022-11-21T16:53:08;23.47;;;11.03;;
1412;SDS011;701;52.526;13.408;2022-11-21T16:55:34;23.02;;;11.88;;
1412;SDS011;701;52.526;13.408;2022-11-21T16:57:59;23.30;;;11.33;;
1412;SDS011;701;52.526;13.408;2022-11-21T17:00:25;21.35;;;10.40;;
1412;SDS011;701;52.526;13.408;2022-11-21T17:02:52;22.87;;;11.07;;
1412;SDS011;701;52.526;13.408;2022-11-21T17:05:18;26.08;;;10.75;;
1412;SDS011;701;52.526;13.408;2022-11-21T17:07:44;23.85;;;11.90;;
1412;SDS011;701;52.526;13.408;2022-11-21T17:10:10;29.87;;;11.53;;
1412;SDS011;701;52.526;13.408;2022-11-21T17:12:37;24.00;;;11.25;;
1412;SDS011;701;52.526;13.408;2022-11-21T17:15:04;25.20;;;11.90;;
1412;SDS011;701;52.526;13.408;2022-11-21T17:17:30;23.65;;;11.82;;
1412;SDS011;701;52.526;13.408;2022-11-21T17:19:56;24.67;;;11.47;;
1412;SDS011;701;52.526;13.408;2022-11-21T17:22:22;27.38;;;11.70;;
1412;SDS011;701;52.526;13.408;2022-11-21T17:24:49;30.90;;;12.37;;
1412;SDS011;701;52.526;13.408;2022-11-21T17:27:18;28.50;;;13.70;;